sensor_id;sensor_type;location;lat;lon;timestamp;P1;durP1;ratioP1;P2;durP2;ratioP2
51272;SDS011;37345;59.828;30.328;2022-08-01T00:00:41;6.43;;;2.73;;
51272;SDS011;37345;59.828;30.328;2022-08-01T00:03:07;5.63;;;2.40;;
51272;SDS011;37345;59.828;30.328;2022-08-01T00:05:33;4.47;;;2.40;;
51272;SDS011;37345;59.828;30.328;2022-08-01T00:07:59;3.95;;;2.40;;
51272;SDS011;37345;59.828;30.328;2022-08-01T00:10:24;3.45;;;2.00;;
51272;SDS011;37345;59.828;30.328;2022-08-01T00:12:50;3.58;;;2.00;;
51272;SDS011;37345;59.828;30.328;2022-08-01T00:15:16;3.70;;;2.30;;
51272;SDS011;37345;59.828;30.328;2022-08-01T00:17:43;4.60;;;2.00;;
51272;SDS011;37345;59.828;30.328;2022-08-01T00:20:10;5.45;;;2.50;;
51272;SDS011;37345;59.828;30.328;2022-08-01T00:22:37;3.45;;;2.30;;
51272;SDS011;37345;59.828;30.328;2022-08-01T00:25:04;4.68;;;2.30;;
51272;SDS011;37345;59.828;30.328;2022-08-01T00:27:30;3.47;;;2.40;;
51272;SDS011;37345;59.828;30.328;2022-08-01T00:29:57;3.87;;;2.87;;
51272;SDS011;37345;59.828;30.328;2022-08-01T00:32:23;4.97;;;2.45;;
51272;SDS011;37345;59.828;30.328;2022-08-01T00:34:49;5.30;;;2.92;;
51272;SDS011;37345;59.828;30.328;2022-08-01T00:37:15;4.38;;;2.53;;
51272;SDS011;37345;59.828;30.328;2022-08-01T00:39:41;4.60;;;2.35;;
51272;SDS011;37345;59.828;30.328;2022-08-01T00:42:08;6.60;;;2.80;;
51272;SDS011;37345;59.828;30.328;2022-08-01T00:44:35;6.20;;;2.60;;
51272;SDS011;37345;59.828;30.328;2022-08-01T00:47:02;5.05;;;2.50;;
51272;SDS011;37345;59.828;30.328;2022-08-01T00:49:29;5.97;;;2.80;;
51272;SDS011;37345;59.828;30.328;2022-08-01T00:51:55;3.35;;;2.50;;
51272;SDS011;37345;59.828;30.328;2022-08-01T00:54:25;4.45;;;2.50;;
51272;SDS011;37345;59.828;30.328;2022-08-01T00:56:52;3.97;;;3.00;;
51272;SDS011;37345;59.828;30.328;2022-08-01T00:59:19;3.07;;;2.47;;
51272;SDS011;37345;59.828;30.328;2022-08-01T01:01:47;3.50;;;2.37;;
51272;SDS011;37345;59.828;30.328;2022-08-01T01:04:13;4.20;;;2.80;;
51272;SDS011;37345;59.828;30.328;2022-08-01T01:09:39;4.60;;;2.38;;
51272;SDS011;37345;59.828;30.328;2022-08-01T01:17:32;4.15;;;2.00;;
51272;SDS011;37345;59.828;30.328;2022-08-01T01:20:02;3.22;;;2.17;;
51272;SDS011;37345;59.828;30.328;2022-08-01T01:22:42;3.53;;;2.20;;
51272;SDS011;37345;59.828;30.328;2022-08-01T01:30:55;2.53;;;2.10;;
51272;SDS011;37345;59.828;30.328;2022-08-01T01:33:23;4.35;;;2.40;;
51272;SDS011;37345;59.828;30.328;2022-08-01T01:35:55;5.00;;;2.47;;
51272;SDS011;37345;59.828;30.328;2022-08-01T01:38:26;5.33;;;2.47;;
51272;SDS011;37345;59.828;30.328;2022-08-01T01:40:57;3.35;;;2.42;;
51272;SDS011;37345;59.828;30.328;2022-08-01T01:43:25;4.47;;;2.60;;
51272;SDS011;37345;59.828;30.328;2022-08-01T01:45:52;4.13;;;2.63;;
51272;SDS011;37345;59.828;30.328;2022-08-01T01:48:19;4.43;;;2.50;;
51272;SDS011;37345;59.828;30.328;2022-08-01T01:50:48;6.60;;;2.63;;
51272;SDS011;37345;59.828;30.328;2022-08-01T01:53:16;5.47;;;2.40;;
51272;SDS011;37345;59.828;30.328;2022-08-01T01:55:45;4.18;;;2.60;;
51272;SDS011;37345;59.828;30.328;2022-08-01T01:58:13;3.90;;;2.53;;
51272;SDS011;37345;59.828;30.328;2022-08-01T02:00:41;3.95;;;2.45;;
51272;SDS011;37345;59.828;30.328;2022-08-01T02:03:10;5.03;;;2.60;;
51272;SDS011;37345;59.828;30.328;2022-08-01T02:05:37;5.38;;;2.55;;
51272;SDS011;37345;59.828;30.328;2022-08-01T02:08:05;3.00;;;2.38;;
51272;SDS011;37345;59.828;30.328;2022-08-01T02:10:33;9.67;;;3.93;;
51272;SDS011;37345;59.828;30.328;2022-08-01T02:13:04;5.07;;;2.10;;
51272;SDS011;37345;59.828;30.328;2022-08-01T02:15:32;4.10;;;2.25;;
51272;SDS011;37345;59.828;30.328;2022-08-01T02:18:03;3.30;;;2.13;;
51272;SDS011;37345;59.828;30.328;2022-08-01T02:20:32;4.85;;;1.98;;
51272;SDS011;37345;59.828;30.328;2022-08-01T02:23:06;7.50;;;2.43;;
51272;SDS011;37345;59.828;30.328;2022-08-01T02:25:39;2.92;;;2.08;;
51272;SDS011;37345;59.828;30.328;2022-08-01T02:28:17;3.33;;;2.03;;
51272;SDS011;37345;59.828;30.328;2022-08-01T02:30:53;3.42;;;2.13;;
51272;SDS011;37345;59.828;30.328;2022-08-01T02:33:25;4.40;;;1.90;;
51272;SDS011;37345;59.828;30.328;2022-08-01T02:36:01;6.10;;;2.30;;
51272;SDS011;37345;59.828;30.328;2022-08-01T02:38:28;3.30;;;2.00;;
51272;SDS011;37345;59.828;30.328;2022-08-01T02:40:58;4.55;;;2.33;;
51272;SDS011;37345;59.828;30.328;2022-08-01T02:43:28;7.93;;;4.10;;
51272;SDS011;37345;59.828;30.328;2022-08-01T02:45:59;6.07;;;2.30;;
51272;SDS011;37345;59.828;30.328;2022-08-01T02:48:27;3.93;;;2.37;;
51272;SDS011;37345;59.828;30.328;2022-08-01T02:50:58;3.08;;;2.00;;
51272;SDS011;37345;59.828;30.328;2022-08-01T02:53:27;2.65;;;1.95;;
51272;SDS011;37345;59.828;30.328;2022-08-01T02:55:56;5.22;;;2.13;;
51272;SDS011;37345;59.828;30.328;2022-08-01T02:58:23;3.50;;;2.30;;
51272;SDS011;37345;59.828;30.328;2022-08-01T03:00:50;5.97;;;2.60;;
51272;SDS011;37345;59.828;30.328;2022-08-01T03:03:17;3.70;;;2.10;;
51272;SDS011;37345;59.828;30.328;2022-08-01T03:05:43;4.32;;;1.95;;
51272;SDS011;37345;59.828;30.328;2022-08-01T03:08:11;3.10;;;2.10;;
51272;SDS011;37345;59.828;30.328;2022-08-01T03:10:40;3.25;;;2.13;;
51272;SDS011;37345;59.828;30.328;2022-08-01T03:13:08;3.65;;;1.95;;
51272;SDS011;37345;59.828;30.328;2022-08-01T03:15:35;3.13;;;2.20;;
51272;SDS011;37345;59.828;30.328;2022-08-01T03:18:04;3.50;;;2.83;;
51272;SDS011;37345;59.828;30.328;2022-08-01T03:20:35;3.08;;;2.30;;
51272;SDS011;37345;59.828;30.328;2022-08-01T03:23:03;3.20;;;2.17;;
51272;SDS011;37345;59.828;30.328;2022-08-01T03:25:31;4.25;;;2.13;;
51272;SDS011;37345;59.828;30.328;2022-08-01T03:28:03;2.20;;;2.00;;
51272;SDS011;37345;59.828;30.328;2022-08-01T03:30:31;3.53;;;2.17;;
51272;SDS011;37345;59.828;30.328;2022-08-01T03:33:03;3.90;;;2.03;;
51272;SDS011;37345;59.828;30.328;2022-08-01T03:35:33;3.45;;;2.00;;
51272;SDS011;37345;59.828;30.328;2022-08-01T03:38:03;2.83;;;1.90;;
51272;SDS011;37345;59.828;30.328;2022-08-01T03:43:30;4.28;;;1.85;;
51272;SDS011;37345;59.828;30.328;2022-08-01T03:46:03;2.88;;;2.05;;
51272;SDS011;37345;59.828;30.328;2022-08-01T03:48:33;3.15;;;2.05;;
51272;SDS011;37345;59.828;30.328;2022-08-01T03:51:04;2.75;;;2.00;;
51272;SDS011;37345;59.828;30.328;2022-08-01T03:53:32;3.67;;;1.80;;
51272;SDS011;37345;59.828;30.328;2022-08-01T03:56:00;2.55;;;1.83;;
51272;SDS011;37345;59.828;30.328;2022-08-01T03:58:30;3.60;;;1.80;;
51272;SDS011;37345;59.828;30.328;2022-08-01T04:00:57;2.70;;;1.83;;
51272;SDS011;37345;59.828;30.328;2022-08-01T04:03:24;2.35;;;1.80;;
51272;SDS011;37345;59.828;30.328;2022-08-01T04:05:50;2.88;;;1.70;;
51272;SDS011;37345;59.828;30.328;2022-08-01T04:08:16;2.97;;;1.77;;
51272;SDS011;37345;59.828;30.328;2022-08-01T04:10:42;2.42;;;1.48;;
51272;SDS011;37345;59.828;30.328;2022-08-01T04:13:11;4.63;;;1.77;;
51272;SDS011;37345;59.828;30.328;2022-08-01T04:15:37;4.25;;;1.60;;
51272;SDS011;37345;59.828;30.328;2022-08-01T04:18:03;2.80;;;1.70;;
51272;SDS011;37345;59.828;30.328;2022-08-01T04:20:29;3.83;;;1.87;;
51272;SDS011;37345;59.828;30.328;2022-08-01T04:22:55;3.87;;;1.70;;
51272;SDS011;37345;59.828;30.328;2022-08-01T04:25:32;3.58;;;1.58;;
51272;SDS011;37345;59.828;30.328;2022-08-01T04:28:00;2.13;;;1.77;;
51272;SDS011;37345;59.828;30.328;2022-08-01T04:30:30;2.97;;;1.60;;
51272;SDS011;37345;59.828;30.328;2022-08-01T04:33:00;2.97;;;1.80;;
51272;SDS011;37345;59.828;30.328;2022-08-01T04:35:28;5.60;;;1.88;;
51272;SDS011;37345;59.828;30.328;2022-08-01T04:37:55;4.70;;;1.80;;
51272;SDS011;37345;59.828;30.328;2022-08-01T04:40:21;3.80;;;1.60;;
51272;SDS011;37345;59.828;30.328;2022-08-01T04:42:48;4.50;;;1.60;;
51272;SDS011;37345;59.828;30.328;2022-08-01T04:45:15;2.88;;;1.40;;
51272;SDS011;37345;59.828;30.328;2022-08-01T04:47:42;3.95;;;1.55;;
51272;SDS011;37345;59.828;30.328;2022-08-01T04:50:09;2.53;;;1.33;;
51272;SDS011;37345;59.828;30.328;2022-08-01T04:52:37;3.83;;;1.30;;
51272;SDS011;37345;59.828;30.328;2022-08-01T04:55:04;2.70;;;1.30;;
51272;SDS011;37345;59.828;30.328;2022-08-01T04:57:36;4.07;;;1.30;;
51272;SDS011;37345;59.828;30.328;2022-08-01T05:00:05;2.45;;;1.20;;
51272;SDS011;37345;59.828;30.328;2022-08-01T05:02:31;2.13;;;1.40;;
51272;SDS011;37345;59.828;30.328;2022-08-01T05:04:57;1.30;;;1.00;;
51272;SDS011;37345;59.828;30.328;2022-08-01T05:07:23;1.17;;;0.97;;
51272;SDS011;37345;59.828;30.328;2022-08-01T05:09:49;1.95;;;1.25;;
51272;SDS011;37345;59.828;30.328;2022-08-01T05:12:16;1.77;;;1.27;;
51272;SDS011;37345;59.828;30.328;2022-08-01T05:14:42;1.27;;;0.80;;
51272;SDS011;37345;59.828;30.328;2022-08-01T05:17:08;1.45;;;1.10;;
51272;SDS011;37345;59.828;30.328;2022-08-01T05:19:35;2.90;;;1.13;;
51272;SDS011;37345;59.828;30.328;2022-08-01T05:22:02;1.83;;;1.37;;
51272;SDS011;37345;59.828;30.328;2022-08-01T05:24:37;6.40;;;1.30;;
51272;SDS011;37345;59.828;30.328;2022-08-01T05:27:04;1.65;;;1.40;;
51272;SDS011;37345;59.828;30.328;2022-08-01T05:29:31;2.35;;;1.52;;
51272;SDS011;37345;59.828;30.328;2022-08-01T05:31:57;5.10;;;1.60;;
51272;SDS011;37345;59.828;30.328;2022-08-01T05:34:24;2.00;;;1.50;;
51272;SDS011;37345;59.828;30.328;2022-08-01T05:36:50;3.30;;;1.75;;
51272;SDS011;37345;59.828;30.328;2022-08-01T05:39:16;2.97;;;1.80;;
51272;SDS011;37345;59.828;30.328;2022-08-01T05:41:42;3.10;;;1.48;;
51272;SDS011;37345;59.828;30.328;2022-08-01T05:44:08;2.80;;;1.90;;
51272;SDS011;37345;59.828;30.328;2022-08-01T05:46:34;3.47;;;1.80;;
51272;SDS011;37345;59.828;30.328;2022-08-01T05:49:01;2.90;;;1.40;;
51272;SDS011;37345;59.828;30.328;2022-08-01T05:51:28;2.85;;;1.58;;
51272;SDS011;37345;59.828;30.328;2022-08-01T05:53:58;2.70;;;1.52;;
51272;SDS011;37345;59.828;30.328;2022-08-01T05:56:24;4.50;;;1.55;;
51272;SDS011;37345;59.828;30.328;2022-08-01T05:58:50;2.88;;;1.70;;
51272;SDS011;37345;59.828;30.328;2022-08-01T06:01:16;4.20;;;1.60;;
51272;SDS011;37345;59.828;30.328;2022-08-01T06:03:43;4.00;;;1.92;;
51272;SDS011;37345;59.828;30.328;2022-08-01T06:06:09;2.75;;;1.80;;
51272;SDS011;37345;59.828;30.328;2022-08-01T06:08:35;8.10;;;1.90;;
51272;SDS011;37345;59.828;30.328;2022-08-01T06:11:01;5.18;;;1.77;;
51272;SDS011;37345;59.828;30.328;2022-08-01T06:13:27;7.23;;;1.63;;
51272;SDS011;37345;59.828;30.328;2022-08-01T06:15:52;4.73;;;2.07;;
51272;SDS011;37345;59.828;30.328;2022-08-01T06:18:18;7.95;;;1.70;;
51272;SDS011;37345;59.828;30.328;2022-08-01T06:20:45;6.38;;;2.10;;
51272;SDS011;37345;59.828;30.328;2022-08-01T06:23:11;6.28;;;1.40;;
51272;SDS011;37345;59.828;30.328;2022-08-01T06:25:37;5.30;;;1.73;;
51272;SDS011;37345;59.828;30.328;2022-08-01T06:28:02;5.65;;;2.15;;
51272;SDS011;37345;59.828;30.328;2022-08-01T06:30:28;4.75;;;1.50;;
51272;SDS011;37345;59.828;30.328;2022-08-01T06:32:54;3.25;;;1.33;;
51272;SDS011;37345;59.828;30.328;2022-08-01T06:35:23;3.35;;;1.55;;
51272;SDS011;37345;59.828;30.328;2022-08-01T06:37:49;3.95;;;1.42;;
51272;SDS011;37345;59.828;30.328;2022-08-01T06:40:15;4.05;;;1.02;;
51272;SDS011;37345;59.828;30.328;2022-08-01T06:42:44;5.25;;;1.42;;
51272;SDS011;37345;59.828;30.328;2022-08-01T06:45:12;5.40;;;1.58;;
51272;SDS011;37345;59.828;30.328;2022-08-01T06:47:39;6.15;;;1.30;;
51272;SDS011;37345;59.828;30.328;2022-08-01T06:50:08;2.70;;;1.20;;
51272;SDS011;37345;59.828;30.328;2022-08-01T06:52:39;4.72;;;1.20;;
51272;SDS011;37345;59.828;30.328;2022-08-01T06:55:06;3.30;;;1.30;;
51272;SDS011;37345;59.828;30.328;2022-08-01T06:57:33;3.35;;;1.13;;
51272;SDS011;37345;59.828;30.328;2022-08-01T07:00:01;2.53;;;1.30;;
51272;SDS011;37345;59.828;30.328;2022-08-01T07:02:33;4.07;;;1.40;;
51272;SDS011;37345;59.828;30.328;2022-08-01T07:05:01;4.85;;;1.40;;
51272;SDS011;37345;59.828;30.328;2022-08-01T07:07:28;4.32;;;0.90;;
51272;SDS011;37345;59.828;30.328;2022-08-01T07:09:55;4.00;;;1.30;;
51272;SDS011;37345;59.828;30.328;2022-08-01T07:12:20;2.33;;;1.30;;
51272;SDS011;37345;59.828;30.328;2022-08-01T07:14:46;3.70;;;1.20;;
51272;SDS011;37345;59.828;30.328;2022-08-01T07:17:12;3.47;;;1.23;;
51272;SDS011;37345;59.828;30.328;2022-08-01T07:19:38;1.90;;;1.13;;
51272;SDS011;37345;59.828;30.328;2022-08-01T07:22:04;4.65;;;1.30;;
51272;SDS011;37345;59.828;30.328;2022-08-01T07:24:30;3.58;;;1.40;;
51272;SDS011;37345;59.828;30.328;2022-08-01T07:26:56;4.05;;;1.33;;
51272;SDS011;37345;59.828;30.328;2022-08-01T07:29:26;5.37;;;1.37;;
51272;SDS011;37345;59.828;30.328;2022-08-01T07:31:52;0.93;;;0.82;;
51272;SDS011;37345;59.828;30.328;2022-08-01T07:34:20;4.60;;;1.35;;
51272;SDS011;37345;59.828;30.328;2022-08-01T07:36:46;4.07;;;1.00;;
51272;SDS011;37345;59.828;30.328;2022-08-01T07:39:16;2.77;;;1.23;;
51272;SDS011;37345;59.828;30.328;2022-08-01T07:41:42;1.83;;;1.20;;
51272;SDS011;37345;59.828;30.328;2022-08-01T07:44:08;6.47;;;1.10;;
51272;SDS011;37345;59.828;30.328;2022-08-01T07:46:33;2.10;;;1.35;;
51272;SDS011;37345;59.828;30.328;2022-08-01T07:48:59;5.68;;;1.40;;
51272;SDS011;37345;59.828;30.328;2022-08-01T07:51:25;3.42;;;1.52;;
51272;SDS011;37345;59.828;30.328;2022-08-01T07:53:51;2.13;;;1.20;;
51272;SDS011;37345;59.828;30.328;2022-08-01T07:56:17;5.63;;;1.92;;
51272;SDS011;37345;59.828;30.328;2022-08-01T07:58:43;2.95;;;1.50;;
51272;SDS011;37345;59.828;30.328;2022-08-01T08:01:09;4.87;;;1.70;;
51272;SDS011;37345;59.828;30.328;2022-08-01T08:03:34;4.70;;;2.00;;
51272;SDS011;37345;59.828;30.328;2022-08-01T08:06:00;4.70;;;2.17;;
51272;SDS011;37345;59.828;30.328;2022-08-01T08:08:26;5.80;;;2.13;;
51272;SDS011;37345;59.828;30.328;2022-08-01T08:10:52;7.32;;;2.20;;
51272;SDS011;37345;59.828;30.328;2022-08-01T08:13:18;5.63;;;2.33;;
51272;SDS011;37345;59.828;30.328;2022-08-01T08:15:45;6.90;;;2.97;;
51272;SDS011;37345;59.828;30.328;2022-08-01T08:18:14;5.03;;;2.90;;
51272;SDS011;37345;59.828;30.328;2022-08-01T08:20:41;3.60;;;2.50;;
51272;SDS011;37345;59.828;30.328;2022-08-01T08:23:15;5.70;;;2.72;;
51272;SDS011;37345;59.828;30.328;2022-08-01T08:25:59;3.70;;;2.33;;
51272;SDS011;37345;59.828;30.328;2022-08-01T08:28:25;3.47;;;2.13;;
51272;SDS011;37345;59.828;30.328;2022-08-01T08:30:54;4.95;;;2.10;;
51272;SDS011;37345;59.828;30.328;2022-08-01T08:33:20;4.63;;;2.30;;
51272;SDS011;37345;59.828;30.328;2022-08-01T08:35:46;2.97;;;1.80;;
51272;SDS011;37345;59.828;30.328;2022-08-01T08:38:12;4.00;;;2.00;;
51272;SDS011;37345;59.828;30.328;2022-08-01T08:40:38;5.88;;;1.70;;
51272;SDS011;37345;59.828;30.328;2022-08-01T08:43:07;5.10;;;2.22;;
51272;SDS011;37345;59.828;30.328;2022-08-01T08:45:34;5.35;;;1.42;;
51272;SDS011;37345;59.828;30.328;2022-08-01T08:48:00;3.50;;;0.98;;
51272;SDS011;37345;59.828;30.328;2022-08-01T08:50:29;4.68;;;1.52;;
51272;SDS011;37345;59.828;30.328;2022-08-01T08:52:58;1.98;;;1.15;;
51272;SDS011;37345;59.828;30.328;2022-08-01T08:55:52;1.17;;;1.07;;
51272;SDS011;37345;59.828;30.328;2022-08-01T08:58:41;2.75;;;1.10;;
51272;SDS011;37345;59.828;30.328;2022-08-01T09:01:09;2.80;;;1.10;;
51272;SDS011;37345;59.828;30.328;2022-08-01T09:03:37;1.90;;;1.20;;
51272;SDS011;37345;59.828;30.328;2022-08-01T09:06:04;4.00;;;1.02;;
51272;SDS011;37345;59.828;30.328;2022-08-01T09:08:30;6.63;;;2.67;;
51272;SDS011;37345;59.828;30.328;2022-08-01T09:10:57;4.60;;;1.50;;
51272;SDS011;37345;59.828;30.328;2022-08-01T09:14:00;4.77;;;1.23;;
51272;SDS011;37345;59.828;30.328;2022-08-01T09:16:31;2.72;;;1.20;;
51272;SDS011;37345;59.828;30.328;2022-08-01T09:19:08;6.05;;;1.25;;
51272;SDS011;37345;59.828;30.328;2022-08-01T09:21:36;2.83;;;1.00;;
51272;SDS011;37345;59.828;30.328;2022-08-01T09:24:03;3.70;;;1.25;;
51272;SDS011;37345;59.828;30.328;2022-08-01T09:26:37;3.78;;;1.10;;
51272;SDS011;37345;59.828;30.328;2022-08-01T09:29:07;3.07;;;0.90;;
51272;SDS011;37345;59.828;30.328;2022-08-01T09:31:44;3.50;;;1.00;;
51272;SDS011;37345;59.828;30.328;2022-08-01T09:34:12;1.38;;;0.82;;
51272;SDS011;37345;59.828;30.328;2022-08-01T09:39:37;2.87;;;0.97;;
51272;SDS011;37345;59.828;30.328;2022-08-01T09:42:21;1.85;;;0.88;;
51272;SDS011;37345;59.828;30.328;2022-08-01T09:44:49;3.58;;;1.10;;
51272;SDS011;37345;59.828;30.328;2022-08-01T09:47:19;2.10;;;1.20;;
51272;SDS011;37345;59.828;30.328;2022-08-01T09:49:55;2.20;;;1.00;;
51272;SDS011;37345;59.828;30.328;2022-08-01T09:52:25;2.45;;;0.88;;
51272;SDS011;37345;59.828;30.328;2022-08-01T09:54:53;2.00;;;1.08;;
51272;SDS011;37345;59.828;30.328;2022-08-01T09:57:23;4.07;;;1.13;;
51272;SDS011;37345;59.828;30.328;2022-08-01T09:59:51;4.68;;;1.15;;
51272;SDS011;37345;59.828;30.328;2022-08-01T10:05:10;1.00;;;0.73;;
51272;SDS011;37345;59.828;30.328;2022-08-01T10:07:54;2.67;;;0.65;;
51272;SDS011;37345;59.828;30.328;2022-08-01T10:10:22;2.17;;;0.63;;
51272;SDS011;37345;59.828;30.328;2022-08-01T10:12:48;2.35;;;0.63;;
51272;SDS011;37345;59.828;30.328;2022-08-01T10:15:20;3.10;;;1.40;;
51272;SDS011;37345;59.828;30.328;2022-08-01T10:17:56;0.70;;;0.50;;
51272;SDS011;37345;59.828;30.328;2022-08-01T10:20:24;1.25;;;0.50;;
51272;SDS011;37345;59.828;30.328;2022-08-01T10:22:52;1.92;;;0.55;;
51272;SDS011;37345;59.828;30.328;2022-08-01T10:25:19;1.70;;;0.45;;
51272;SDS011;37345;59.828;30.328;2022-08-01T10:27:54;1.08;;;0.45;;
51272;SDS011;37345;59.828;30.328;2022-08-01T10:30:22;1.08;;;0.57;;
51272;SDS011;37345;59.828;30.328;2022-08-01T10:32:49;2.90;;;0.60;;
51272;SDS011;37345;59.828;30.328;2022-08-01T10:35:17;1.25;;;0.60;;
51272;SDS011;37345;59.828;30.328;2022-08-01T10:37:45;0.65;;;0.50;;
51272;SDS011;37345;59.828;30.328;2022-08-01T10:40:15;1.27;;;0.50;;
51272;SDS011;37345;59.828;30.328;2022-08-01T10:42:42;1.52;;;0.40;;
51272;SDS011;37345;59.828;30.328;2022-08-01T10:45:13;1.90;;;0.57;;
51272;SDS011;37345;59.828;30.328;2022-08-01T10:47:42;2.47;;;0.73;;
51272;SDS011;37345;59.828;30.328;2022-08-01T10:55:49;1.33;;;0.90;;
51272;SDS011;37345;59.828;30.328;2022-08-01T10:58:25;2.53;;;0.47;;
51272;SDS011;37345;59.828;30.328;2022-08-01T11:01:36;1.10;;;0.60;;
51272;SDS011;37345;59.828;30.328;2022-08-01T11:03:57;1.05;;;0.77;;
51272;SDS011;37345;59.828;30.328;2022-08-01T11:09:03;1.20;;;0.80;;
51272;SDS011;37345;59.828;30.328;2022-08-01T11:11:30;1.13;;;0.73;;
51272;SDS011;37345;59.828;30.328;2022-08-01T11:16:33;2.00;;;1.30;;
51272;SDS011;37345;59.828;30.328;2022-08-01T11:19:04;1.67;;;1.30;;
51272;SDS011;37345;59.828;30.328;2022-08-01T11:27:19;5.65;;;1.40;;
51272;SDS011;37345;59.828;30.328;2022-08-01T11:30:32;2.37;;;1.50;;
51272;SDS011;37345;59.828;30.328;2022-08-01T11:35:15;1.90;;;1.42;;
51272;SDS011;37345;59.828;30.328;2022-08-01T11:37:50;4.53;;;1.55;;
51272;SDS011;37345;59.828;30.328;2022-08-01T11:40:20;2.20;;;1.50;;
51272;SDS011;37345;59.828;30.328;2022-08-01T11:42:49;3.25;;;1.40;;
51272;SDS011;37345;59.828;30.328;2022-08-01T11:45:18;2.22;;;1.58;;
51272;SDS011;37345;59.828;30.328;2022-08-01T11:47:45;3.20;;;1.60;;
51272;SDS011;37345;59.828;30.328;2022-08-01T11:52:58;3.85;;;1.95;;
51272;SDS011;37345;59.828;30.328;2022-08-01T11:55:26;2.20;;;1.60;;
51272;SDS011;37345;59.828;30.328;2022-08-01T11:58:04;2.10;;;1.90;;
51272;SDS011;37345;59.828;30.328;2022-08-01T12:00:31;2.67;;;1.90;;
51272;SDS011;37345;59.828;30.328;2022-08-01T12:03:01;2.35;;;1.92;;
51272;SDS011;37345;59.828;30.328;2022-08-01T12:05:29;3.40;;;2.05;;
51272;SDS011;37345;59.828;30.328;2022-08-01T12:07:56;4.53;;;3.42;;
51272;SDS011;37345;59.828;30.328;2022-08-01T12:10:24;3.75;;;3.38;;
51272;SDS011;37345;59.828;30.328;2022-08-01T12:12:52;4.57;;;2.95;;
51272;SDS011;37345;59.828;30.328;2022-08-01T12:15:21;4.57;;;3.08;;
51272;SDS011;37345;59.828;30.328;2022-08-01T12:17:58;3.83;;;2.97;;
51272;SDS011;37345;59.828;30.328;2022-08-01T12:20:30;3.60;;;3.30;;
51272;SDS011;37345;59.828;30.328;2022-08-01T12:23:02;4.00;;;3.10;;
51272;SDS011;37345;59.828;30.328;2022-08-01T12:25:32;4.25;;;3.25;;
51272;SDS011;37345;59.828;30.328;2022-08-01T12:28:00;4.83;;;3.80;;
51272;SDS011;37345;59.828;30.328;2022-08-01T12:30:31;4.60;;;3.93;;
51272;SDS011;37345;59.828;30.328;2022-08-01T12:33:00;6.88;;;4.28;;
51272;SDS011;37345;59.828;30.328;2022-08-01T12:35:28;6.25;;;3.40;;
51272;SDS011;37345;59.828;30.328;2022-08-01T12:37:58;4.00;;;2.03;;
51272;SDS011;37345;59.828;30.328;2022-08-01T12:40:29;3.95;;;2.45;;
51272;SDS011;37345;59.828;30.328;2022-08-01T12:43:03;6.60;;;2.33;;
51272;SDS011;37345;59.828;30.328;2022-08-01T12:48:06;2.92;;;1.70;;
51272;SDS011;37345;59.828;30.328;2022-08-01T12:50:38;2.45;;;1.70;;
51272;SDS011;37345;59.828;30.328;2022-08-01T12:53:07;3.47;;;1.70;;
51272;SDS011;37345;59.828;30.328;2022-08-01T12:55:40;1.45;;;1.35;;
51272;SDS011;37345;59.828;30.328;2022-08-01T12:58:10;2.00;;;1.38;;
51272;SDS011;37345;59.828;30.328;2022-08-01T13:00:39;2.73;;;1.23;;
51272;SDS011;37345;59.828;30.328;2022-08-01T13:03:14;1.52;;;1.15;;
51272;SDS011;37345;59.828;30.328;2022-08-01T13:05:44;2.03;;;1.00;;
51272;SDS011;37345;59.828;30.328;2022-08-01T13:08:11;3.13;;;0.98;;
51272;SDS011;37345;59.828;30.328;2022-08-01T13:10:39;2.03;;;1.23;;
51272;SDS011;37345;59.828;30.328;2022-08-01T13:13:08;1.75;;;1.10;;
51272;SDS011;37345;59.828;30.328;2022-08-01T13:15:35;1.60;;;0.90;;
51272;SDS011;37345;59.828;30.328;2022-08-01T13:23:38;6.53;;;1.00;;
51272;SDS011;37345;59.828;30.328;2022-08-01T13:26:05;1.50;;;1.00;;
51272;SDS011;37345;59.828;30.328;2022-08-01T13:28:37;1.87;;;1.00;;
51272;SDS011;37345;59.828;30.328;2022-08-01T13:31:04;3.13;;;1.40;;
51272;SDS011;37345;59.828;30.328;2022-08-01T13:33:45;2.17;;;1.20;;
51272;SDS011;37345;59.828;30.328;2022-08-01T13:36:13;3.33;;;1.20;;
51272;SDS011;37345;59.828;30.328;2022-08-01T13:38:42;2.08;;;1.00;;
51272;SDS011;37345;59.828;30.328;2022-08-01T13:41:26;2.70;;;1.10;;
51272;SDS011;37345;59.828;30.328;2022-08-01T13:43:58;1.48;;;1.17;;
51272;SDS011;37345;59.828;30.328;2022-08-01T13:46:24;1.50;;;1.10;;
51272;SDS011;37345;59.828;30.328;2022-08-01T13:48:50;2.40;;;1.05;;
51272;SDS011;37345;59.828;30.328;2022-08-01T13:51:18;1.03;;;0.93;;
51272;SDS011;37345;59.828;30.328;2022-08-01T13:53:44;1.30;;;1.00;;
51272;SDS011;37345;59.828;30.328;2022-08-01T13:56:13;2.00;;;1.20;;
51272;SDS011;37345;59.828;30.328;2022-08-01T13:58:41;1.88;;;1.30;;
51272;SDS011;37345;59.828;30.328;2022-08-01T14:01:34;5.03;;;2.60;;
51272;SDS011;37345;59.828;30.328;2022-08-01T14:04:01;5.88;;;2.28;;
51272;SDS011;37345;59.828;30.328;2022-08-01T14:06:27;8.73;;;3.35;;
51272;SDS011;37345;59.828;30.328;2022-08-01T14:08:53;6.80;;;3.38;;
51272;SDS011;37345;59.828;30.328;2022-08-01T14:11:22;13.60;;;5.97;;
51272;SDS011;37345;59.828;30.328;2022-08-01T14:13:48;8.73;;;4.22;;
51272;SDS011;37345;59.828;30.328;2022-08-01T14:16:14;8.00;;;3.58;;
51272;SDS011;37345;59.828;30.328;2022-08-01T14:18:41;18.23;;;7.45;;
51272;SDS011;37345;59.828;30.328;2022-08-01T14:21:07;11.68;;;5.68;;
51272;SDS011;37345;59.828;30.328;2022-08-01T14:23:39;15.50;;;6.87;;
51272;SDS011;37345;59.828;30.328;2022-08-01T14:26:07;11.75;;;7.03;;
51272;SDS011;37345;59.828;30.328;2022-08-01T14:28:34;8.05;;;5.53;;
51272;SDS011;37345;59.828;30.328;2022-08-01T14:31:00;6.90;;;4.97;;
51272;SDS011;37345;59.828;30.328;2022-08-01T14:33:27;5.93;;;4.60;;
51272;SDS011;37345;59.828;30.328;2022-08-01T14:35:53;8.60;;;5.53;;
51272;SDS011;37345;59.828;30.328;2022-08-01T14:38:23;8.13;;;5.43;;
51272;SDS011;37345;59.828;30.328;2022-08-01T14:40:54;5.30;;;3.35;;
51272;SDS011;37345;59.828;30.328;2022-08-01T14:43:20;6.38;;;4.00;;
51272;SDS011;37345;59.828;30.328;2022-08-01T14:45:46;4.38;;;3.28;;
51272;SDS011;37345;59.828;30.328;2022-08-01T14:51:10;4.07;;;3.40;;
51272;SDS011;37345;59.828;30.328;2022-08-01T14:53:36;5.22;;;3.50;;
51272;SDS011;37345;59.828;30.328;2022-08-01T14:56:10;6.32;;;3.65;;
51272;SDS011;37345;59.828;30.328;2022-08-01T14:58:36;9.23;;;4.00;;
51272;SDS011;37345;59.828;30.328;2022-08-01T15:01:20;6.05;;;3.33;;
51272;SDS011;37345;59.828;30.328;2022-08-01T15:03:52;4.18;;;2.78;;
51272;SDS011;37345;59.828;30.328;2022-08-01T15:06:29;3.73;;;2.40;;
51272;SDS011;37345;59.828;30.328;2022-08-01T15:09:04;4.13;;;2.90;;
51272;SDS011;37345;59.828;30.328;2022-08-01T15:11:30;4.90;;;1.80;;
51272;SDS011;37345;59.828;30.328;2022-08-01T15:13:57;2.10;;;1.63;;
51272;SDS011;37345;59.828;30.328;2022-08-01T15:16:47;5.57;;;1.98;;
51272;SDS011;37345;59.828;30.328;2022-08-01T15:19:25;4.18;;;2.17;;
51272;SDS011;37345;59.828;30.328;2022-08-01T15:33:03;2.42;;;1.77;;
51272;SDS011;37345;59.828;30.328;2022-08-01T15:36:15;3.10;;;1.70;;
51272;SDS011;37345;59.828;30.328;2022-08-01T15:38:44;4.15;;;1.92;;
51272;SDS011;37345;59.828;30.328;2022-08-01T15:41:09;2.50;;;1.80;;
51272;SDS011;37345;59.828;30.328;2022-08-01T15:43:38;2.15;;;1.65;;
51272;SDS011;37345;59.828;30.328;2022-08-01T15:46:04;2.30;;;1.38;;
51272;SDS011;37345;59.828;30.328;2022-08-01T15:48:30;2.78;;;1.60;;
51272;SDS011;37345;59.828;30.328;2022-08-01T15:55:11;4.20;;;1.50;;